Satellite Precipitation Estimates (TXUS20 KWBC)
Issued by NWS

Home | Current Version | Previous Version | Text Only | Print | Product List | Glossary On
Versions: 1 2 3
000
SPTD31 TTPP 151548 RRA
SPECI
TTPP 151545Z 00000KT 9999 -TS FEW014CB SCT018 34/23 Q1014=



USA.gov is the U.S. government's official web portal to all federal, state and local government web resources and services.